Contact Us:
Email: info@sawbill.com
Phone: (218)663-7150
Fax: (218)663-7980
Mail: 4620 Sawbill Trail
Box 2129
Tofte, MN 55615


Powered by
Movable Type 3.15
 
Sawbill Weather History Archives: March 2012
Current Sawbill Weather History | « February 2012 | April 2012 »


Date

High
Temperature

Low
Temperature

Barometric
Pressure

Relative
Humidity 7AM

9 AM
Temperature

Moisture

Snow

3/31/12 39 33 29.88 98% 38 .02"
3/30/12 33 30 30.00 98% 32 .05" Trace
3/29/12 37 28 29.97 96% 30 .28" 2.5"
3/28/12 39 32 30.27 71% 32 0
3/27/12 53 30 29.97 91% 31 .05" Trace
3/26/12 35 29 29.83 91% 30 .14"
3/25/12 35 19 30.45 85% 22 0
3/24/12 59 28 30.27 65% 28 Trace Trace
3/23/12 50 42 30.06 98% 43 0
3/22/12 58 35 30.18 98% 49 .49"
3/21/12 53 35 30.30 98% 35 .37"
3/20/12 63 47 30.09 98% 48 .6"
3/19/12 70 53 29.97 98% 55 .05"
3/18/12 68 46 29.97 98% 53 0
3/17/12 69 44 30.00 98% 58 0
3/16/12 57 32 29.94 94% 44 0
3/15/12 49 28 30.15 59% 32 0
3/14/12 58 32 30.21 56% 33 0
3/13/12 48 31 29.91 51% 41 0
3/12/12 42 33 29.94 85% 33 .33"
3/11/12 54 29 29.83 69% 39 0
3/10/12 50 29 30.03 68% 30 0
3/9/12 29 8 29.91 50% 29 0
3/8/12 30 6 30.47 59% 8 .22" 2"
3/7/12 38 18 29.97 69% 19 Trace Trace
3/6/12 38 23 29.62 86% 32 0
3/5/12 26 -2 29.83 86% 23 Trace Trace
3/4/12 19 -4 30.09 65% -2 Trace Trace
3/3/12 19 0 29.91 61% 7 .08" 1"
3/2/12 32 13 29.68 62% 13 0
3/1/12 31 27 29.74 90% 28 Trace Trace
 


Home I Trip Planning I Rentals and Outfitting I Reservations I Campgrounds I Sawbill Store I Sawbill News I Contact

© 1997 - 2017, Sawbill Canoe Outfitters, Inc. I Privacy Policy